Decoded Metar for KLHW (WRIGHT in GA, USA) (IATA:LHW) | Meteo·Mobile Aviation Weather
aviador You're here:

KLHW Decoded Metar

WRIGHT in GA, USA
Report Time2019-04-24 13:56:00
UTC Time2019-04-24 14:45:17
Flight Rules vfr VFR
WindCalm
Visibility9999 m
Phenomena:N/A
Clouds:Few 210 Hf
Expected CloudBase > 4,400 ft AGL from Temp-Dew spread
CeilingNone
Temp24°C (ISA +9)
Dew Point13°C (50% RH)
QNH1017 hPa
Density Alt1,168 ft
Elevation46 ft
Report Wrong Elevation
Raw Report
KLHW 241356Z AUTO 00000KT 10SM FEW210 24/13 A3002 RMK AO2 SLP169
T02430132 $=

Extra information for KLHW:More info

Metar Taf Metar & Taf Last 4 Metars F.Rules Stats Wind Profile Meteogram Temp Stats Airport Information Weather charts Add Link Nearby VenuesMetar ALERT Operation Metar Decoded Social comments

AIRNAV info for KLHW